Time;durP1;ratioP1;P1;durP2;ratioP2;P2;SDS_P1;SDS_P2;PMS_P1;PMS_P2;Temp;Humidity;BMP_temperature;BMP_pressure;BME280_temperature;BME280_humidity;BME280_pressure;Samples;Min_cycle;Max_cycle;Signal;HPM_P1;HPM_P2
2023/08/30 00:00:32;;;;;;;2.75;2.22;;;;;;;14.68;100.00;100579.50;6328615;28;20055;-71
2023/08/30 00:03:33;;;;;;;5.13;2.13;;;;;;;14.67;100.00;100578.66;6328571;28;20063;-71
2023/08/30 00:06:34;;;;;;;3.42;1.73;;;;;;;14.64;100.00;100578.88;6328118;28;20048;-71
2023/08/30 00:09:36;;;;;;;4.97;2.80;;;;;;;14.61;100.00;100584.38;6328690;28;20063;-71
2023/08/30 00:12:37;;;;;;;2.53;2.03;;;;;;;14.57;100.00;100579.41;6328454;28;20056;-71
2023/08/30 00:15:40;;;;;;;3.35;2.38;;;;;;;14.56;100.00;100586.50;6328060;28;20057;-71
2023/08/30 00:18:41;;;;;;;3.65;2.42;;;;;;;14.54;100.00;100585.78;6328292;28;20052;-71
2023/08/30 00:21:44;;;;;;;3.85;2.42;;;;;;;14.54;100.00;100583.16;6327457;28;20055;-71
2023/08/30 00:24:46;;;;;;;3.25;2.47;;;;;;;14.54;100.00;100577.03;6327688;28;20348;-71
2023/08/30 00:27:47;;;;;;;5.82;2.50;;;;;;;14.46;100.00;100572.25;6328018;28;20079;-71
2023/08/30 00:30:55;;;;;;;3.67;2.63;;;;;;;14.46;100.00;100565.16;6328050;28;20052;-71
2023/08/30 00:33:56;;;;;;;4.60;2.47;;;;;;;14.49;100.00;100566.78;6327883;28;20051;-71
2023/08/30 00:36:58;;;;;;;3.42;2.70;;;;;;;14.48;100.00;100562.41;6327661;28;20044;-71
2023/08/30 00:39:59;;;;;;;6.50;3.05;;;;;;;14.46;100.00;100554.56;6327736;28;20044;-71
2023/08/30 00:43:01;;;;;;;4.85;2.83;;;;;;;14.41;100.00;100556.72;6327909;28;20052;-71
2023/08/30 00:46:04;;;;;;;4.90;2.67;;;;;;;14.40;100.00;100559.47;6327169;28;20059;-71
2023/08/30 00:49:06;;;;;;;4.05;2.50;;;;;;;14.33;100.00;100552.94;6327714;28;20052;-71
2023/08/30 00:52:10;;;;;;;4.55;2.70;;;;;;;14.32;100.00;100549.44;6327490;28;20052;-71
2023/08/30 00:55:12;;;;;;;3.72;2.60;;;;;;;14.31;100.00;100546.91;6326962;28;20063;-71
2023/08/30 00:58:13;;;;;;;5.18;2.65;;;;;;;14.31;100.00;100536.34;6327291;28;20360;-71
2023/08/30 01:01:16;;;;;;;8.73;2.85;;;;;;;14.30;100.00;100547.84;6326790;28;20060;-71
2023/08/30 01:04:19;;;;;;;5.93;2.53;;;;;;;14.30;100.00;100538.13;6326799;28;20048;-71
2023/08/30 01:07:20;;;;;;;4.90;3.00;;;;;;;14.30;100.00;100543.41;6326779;28;20091;-71
2023/08/30 01:10:32;;;;;;;3.70;2.65;;;;;;;14.30;100.00;100532.00;6326981;28;20044;-71
2023/08/30 01:13:40;;;;;;;3.20;2.40;;;;;;;14.40;100.00;100533.03;6326804;28;20051;-71
2023/08/30 01:16:44;;;;;;;3.20;2.50;;;;;;;14.37;100.00;100535.91;6332297;22;20440;-75
2023/08/30 01:19:51;;;;;;;4.97;2.60;;;;;;;14.42;100.00;100529.31;6301524;28;20444;-75
2023/08/30 01:22:59;;;;;;;4.60;2.90;;;;;;;14.50;100.00;100535.88;6301532;28;20055;-75
2023/08/30 01:26:09;;;;;;;4.43;2.80;;;;;;;14.50;100.00;100536.72;6301040;28;20050;-75
2023/08/30 01:29:12;;;;;;;;;;;;;;;14.51;100.00;100533.13;6302012;28;20048;-75
2023/08/30 01:32:14;;;;;;;5.95;2.83;;;;;;;14.53;100.00;100531.19;6301158;28;19924;-75
2023/08/30 01:35:19;;;;;;;6.03;2.30;;;;;;;14.52;100.00;100536.59;6300930;28;20055;-76
2023/08/30 01:38:20;;;;;;;3.83;2.75;;;;;;;14.53;100.00;100528.53;6301155;28;20448;-74
2023/08/30 01:41:23;;;;;;;5.53;3.08;;;;;;;14.54;100.00;100526.78;6301126;28;20337;-74
2023/08/30 01:44:26;;;;;;;5.18;3.20;;;;;;;14.49;100.00;100527.13;6300764;28;20391;-74
2023/08/30 01:47:29;;;;;;;4.80;3.05;;;;;;;14.49;100.00;100526.25;6300714;28;20345;-74
2023/08/30 01:50:31;;;;;;;6.18;3.20;;;;;;;14.43;100.00;100519.56;6300898;28;20049;-74
2023/08/30 01:53:33;;;;;;;5.35;3.30;;;;;;;14.41;100.00;100522.34;6301040;28;20049;-74
2023/08/30 01:56:34;;;;;;;4.75;3.50;;;;;;;14.40;100.00;100525.94;6300343;28;20044;-74
2023/08/30 01:59:37;;;;;;;6.00;3.45;;;;;;;14.39;100.00;100528.69;6300843;28;20049;-74
2023/08/30 02:02:38;;;;;;;5.55;2.78;;;;;;;14.43;100.00;100528.34;6300752;28;20048;-74
2023/08/30 02:05:53;;;;;;;6.45;3.28;;;;;;;14.40;100.00;100522.47;6300111;28;20044;-74
2023/08/30 02:09:02;;;;;;;4.28;2.53;;;;;;;14.44;100.00;100523.91;6300666;28;20048;-74
2023/08/30 02:12:08;;;;;;;4.82;3.42;;;;;;;14.38;100.00;100529.66;6300745;28;20055;-74
2023/08/30 02:15:13;;;;;;;7.80;3.70;;;;;;;14.34;100.00;100523.72;6300097;28;20147;-74
2023/08/30 02:18:14;;;;;;;4.68;3.65;;;;;;;14.34;100.00;100531.66;6300362;28;20056;-74
2023/08/30 02:21:16;;;;;;;6.38;3.78;;;;;;;14.36;100.00;100526.28;6300561;28;20049;-74
2023/08/30 02:24:17;;;;;;;7.45;2.88;;;;;;;14.35;100.00;100514.88;6300253;28;20071;-74
2023/08/30 02:27:18;;;;;;;3.80;3.28;;;;;;;14.34;100.00;100522.88;6300148;28;20056;-74
2023/08/30 02:30:21;;;;;;;5.65;3.08;;;;;;;14.32;100.00;100512.44;6300198;28;20059;-75
2023/08/30 02:33:23;;;;;;;8.02;3.58;;;;;;;14.33;100.00;100518.56;6300365;28;20045;-74
2023/08/30 02:36:24;;;;;;;5.28;3.78;;;;;;;14.30;100.00;100516.13;6299848;28;20044;-74
2023/08/30 02:39:25;;;;;;;4.93;3.15;;;;;;;14.29;100.00;100517.09;6300338;28;20055;-74
2023/08/30 02:42:27;;;;;;;5.32;3.20;;;;;;;14.21;100.00;100520.28;6300142;28;20051;-74
2023/08/30 02:45:29;;;;;;;5.30;3.42;;;;;;;14.20;100.00;100521.25;6307690;28;20049;-74
2023/08/30 02:48:31;;;;;;;4.30;3.17;;;;;;;14.15;100.00;100515.44;6308397;28;20048;-74
2023/08/30 02:51:32;;;;;;;5.53;3.13;;;;;;;14.14;100.00;100508.47;6308251;28;20364;-74
2023/08/30 02:54:34;;;;;;;6.95;3.55;;;;;;;14.12;100.00;100499.81;6308287;28;20075;-74
2023/08/30 02:57:40;;;;;;;7.22;4.00;;;;;;;14.09;100.00;100497.41;6307947;28;20044;-74
2023/08/30 03:00:43;;;;;;;6.35;3.63;;;;;;;14.09;100.00;100498.25;6307676;28;20056;-74
2023/08/30 03:03:46;;;;;;;6.13;3.67;;;;;;;14.07;100.00;100494.00;6307334;28;20048;-74
2023/08/30 03:06:47;;;;;;;6.28;3.38;;;;;;;14.07;100.00;100496.66;6307678;28;20055;-74
2023/08/30 03:09:53;;;;;;;7.68;3.40;;;;;;;14.07;100.00;100496.66;6308117;28;20052;-74
2023/08/30 03:12:54;;;;;;;4.88;3.35;;;;;;;14.06;100.00;100497.63;6308034;28;20088;-74
2023/08/30 03:15:57;;;;;;;5.65;3.60;;;;;;;14.03;100.00;100496.03;6307701;28;20048;-74
2023/08/30 03:18:59;;;;;;;4.90;3.35;;;;;;;14.00;100.00;100496.25;6308017;28;20053;-74
2023/08/30 03:22:00;;;;;;;8.20;3.92;;;;;;;14.02;100.00;100483.78;6308027;28;20056;-74
2023/08/30 03:25:03;;;;;;;6.28;3.83;;;;;;;14.08;100.00;100478.06;6307402;28;20125;-74
2023/08/30 03:28:05;;;;;;;5.43;3.28;;;;;;;14.15;100.00;100489.03;6299422;28;20048;-70
2023/08/30 03:31:15;;;;;;;6.00;3.67;;;;;;;14.12;100.00;100486.59;6296198;28;20452;-71
2023/08/30 03:34:16;;;;;;;5.30;3.85;;;;;;;14.11;100.00;100482.25;6288345;28;20045;-70
2023/08/30 03:37:18;;;;;;;5.80;3.92;;;;;;;14.07;100.00;100481.63;6285223;28;20356;-71
2023/08/30 03:40:19;;;;;;;5.18;3.83;;;;;;;14.13;100.00;100493.59;6298101;28;20056;-71
2023/08/30 03:43:21;;;;;;;5.63;3.78;;;;;;;14.18;100.00;100489.66;6304600;28;20049;-70
2023/08/30 03:46:24;;;;;;;5.00;3.80;;;;;;;14.19;100.00;100493.97;6304126;28;20121;-70
2023/08/30 03:49:25;;;;;;;6.68;3.78;;;;;;;14.18;100.00;100496.75;6306597;28;20064;-71
2023/08/30 03:52:26;;;;;;;4.82;3.33;;;;;;;14.20;100.00;100493.00;6297522;28;20063;-71
2023/08/30 03:55:28;;;;;;;5.82;3.72;;;;;;;14.15;100.00;100499.59;6292960;28;20049;-71
2023/08/30 03:58:29;;;;;;;6.78;3.72;;;;;;;14.14;100.00;100492.63;6291595;28;20067;-70
2023/08/30 04:01:32;;;;;;;5.82;3.70;;;;;;;14.12;100.00;100487.44;6286582;28;20053;-71
2023/08/30 04:04:33;;;;;;;6.85;4.30;;;;;;;14.14;100.00;100474.13;6296328;28;20045;-71
2023/08/30 04:07:35;;;;;;;6.70;3.85;;;;;;;14.17;100.00;100484.44;6302993;28;20132;-71
2023/08/30 04:10:36;;;;;;;6.53;4.13;;;;;;;14.17;100.00;100477.41;6299044;28;20056;-70
2023/08/30 04:13:38;;;;;;;5.40;3.72;;;;;;;14.17;100.00;100472.13;6303085;28;20052;-70
2023/08/30 04:16:40;;;;;;;7.65;4.43;;;;;;;14.09;100.00;100471.81;6291273;28;20052;-71
2023/08/30 04:19:42;;;;;;;7.70;4.68;;;;;;;14.10;100.00;100470.00;6302903;28;20048;-70
2023/08/30 04:22:43;;;;;;;7.93;4.38;;;;;;;14.11;100.00;100476.97;6303193;28;20045;-70
2023/08/30 04:25:45;;;;;;;7.72;4.68;;;;;;;14.09;100.00;100468.34;6302509;28;20052;-71
2023/08/30 04:28:47;;;;;;;9.05;5.00;;;;;;;14.09;100.00;100466.53;6302941;28;20044;-71
2023/08/30 04:31:49;;;;;;;4.82;2.95;;;;;;;14.11;100.00;100471.69;6302598;28;20437;-71
2023/08/30 04:34:51;;;;;;;6.03;4.07;;;;;;;14.09;100.00;100458.59;6290558;28;20581;-71
2023/08/30 04:37:52;;;;;;;9.02;4.40;;;;;;;14.09;100.00;100461.25;6289193;28;20139;-74
2023/08/30 04:40:58;;;;;;;5.00;3.40;;;;;;;14.09;100.00;100458.59;6290594;28;20048;-74
2023/08/30 04:43:59;;;;;;;6.03;3.90;;;;;;;14.08;100.00;100458.69;6290999;28;20091;-74
2023/08/30 04:47:02;;;;;;;8.82;4.65;;;;;;;14.05;100.00;100459.78;6287939;28;20044;-74
2023/08/30 04:50:04;;;;;;;5.75;3.50;;;;;;;14.09;100.00;100470.97;6285896;28;20381;-74
2023/08/30 04:53:06;;;;;;;6.68;3.75;;;;;;;14.08;100.00;100463.97;6289301;28;20044;-74
2023/08/30 04:56:14;;;;;;;10.15;4.97;;;;;;;14.08;100.00;100466.63;6289278;28;20048;-74
2023/08/30 04:59:15;;;;;;;6.78;4.60;;;;;;;14.12;100.00;100466.28;6287901;28;20063;-71
2023/08/30 05:02:18;;;;;;;6.53;4.35;;;;;;;14.11;100.00;100469.91;6292835;28;20052;-71
2023/08/30 05:05:19;;;;;;;4.93;3.60;;;;;;;14.12;100.00;100460.16;6290279;28;20602;-71
2023/08/30 05:08:21;;;;;;;7.32;4.80;;;;;;;14.12;100.00;100461.00;6292896;28;20041;-71
2023/08/30 05:11:22;;;;;;;7.15;4.40;;;;;;;14.13;100.00;100462.72;6291051;28;20049;-71
2023/08/30 05:14:23;;;;;;;5.90;4.00;;;;;;;14.16;100.00;100457.19;6289304;28;20076;-71
2023/08/30 05:17:29;;;;;;;8.20;4.80;;;;;;;14.18;100.00;100462.38;6292768;28;20044;-71
2023/08/30 05:20:31;;;;;;;7.53;4.80;;;;;;;14.16;100.00;100457.19;6289536;28;20464;-71
2023/08/30 05:23:32;;;;;;;8.73;5.70;;;;;;;14.18;100.00;100467.66;6287907;28;20440;-70
2023/08/30 05:26:33;;;;;;;6.72;4.45;;;;;;;14.21;100.00;100462.13;6276188;28;20448;-71
2023/08/30 05:29:35;;;;;;;7.63;4.85;;;;;;;14.19;100.00;100459.63;6280954;28;20341;-75
2023/08/30 05:32:37;;;;;;;7.28;5.00;;;;;;;14.19;100.00;100464.91;6292350;28;20495;-74
2023/08/30 05:35:39;;;;;;;6.75;4.53;;;;;;;14.22;100.00;100463.84;6288092;28;20459;-74
2023/08/30 05:38:41;;;;;;;9.82;5.45;;;;;;;14.23;100.00;100470.81;6288400;28;20056;-74
2023/08/30 05:41:43;;;;;;;6.70;4.10;;;;;;;14.25;100.00;100463.59;6295399;28;20048;-74
2023/08/30 05:44:44;;;;;;;7.63;4.85;;;;;;;14.29;100.00;100459.78;6300671;28;20138;-74
2023/08/30 05:47:47;;;;;;;9.27;5.15;;;;;;;14.27;100.00;100453.78;6300912;28;20045;-74
2023/08/30 05:50:49;;;;;;;7.75;5.03;;;;;;;14.30;100.00;100457.97;6300855;28;20059;-74
2023/08/30 05:53:50;;;;;;;6.60;4.53;;;;;;;14.32;100.00;100458.72;6300992;28;20052;-74
2023/08/30 05:56:51;;;;;;;7.35;4.82;;;;;;;14.37;100.00;100449.50;6300365;28;20040;-74
2023/08/30 05:59:53;;;;;;;13.05;5.55;;;;;;;14.37;100.00;100451.28;6300565;28;20048;-74
2023/08/30 06:02:55;;;;;;;8.65;5.57;;;;;;;14.35;100.00;100459.34;6300697;28;20056;-74
2023/08/30 06:05:57;;;;;;;9.43;5.32;;;;;;;14.38;100.00;100447.69;6300059;28;20045;-74
2023/08/30 06:08:58;;;;;;;10.00;5.50;;;;;;;14.39;100.00;100447.56;6300505;28;20052;-74
2023/08/30 06:12:00;;;;;;;10.50;5.50;;;;;;;14.40;100.00;100449.28;6299869;28;20071;-74
2023/08/30 06:15:01;;;;;;;7.43;4.82;;;;;;;14.36;100.00;100449.63;6299858;28;20071;-74
2023/08/30 06:18:04;;;;;;;7.65;4.75;;;;;;;14.37;100.00;100446.84;6296401;28;20064;-71
2023/08/30 06:21:06;;;;;;;7.95;5.70;;;;;;;14.35;100.00;100439.97;6300473;28;20067;-70
2023/08/30 06:24:08;;;;;;;8.65;5.40;;;;;;;14.40;100.00;100437.88;6299948;28;20048;-71
2023/08/30 06:27:09;;;;;;;8.48;5.55;;;;;;;14.41;100.00;100428.97;6299963;28;20048;-70
2023/08/30 06:30:11;;;;;;;8.32;4.97;;;;;;;14.54;100.00;100428.94;6300302;28;20056;-71
2023/08/30 06:33:14;;;;;;;8.60;5.45;;;;;;;14.47;100.00;100424.06;6300103;28;20585;-70
2023/08/30 06:36:17;;;;;;;8.38;5.57;;;;;;;14.52;100.00;100415.81;6299849;28;20356;-70
2023/08/30 06:39:18;;;;;;;9.75;6.35;;;;;;;14.58;100.00;100423.28;6300140;28;20084;-70
2023/08/30 06:42:20;;;;;;;13.38;7.32;;;;;;;14.56;100.00;100419.06;6300282;28;20056;-70
2023/08/30 06:45:21;;;;;;;12.13;7.05;;;;;;;14.57;100.00;100431.31;6299790;28;20049;-70
2023/08/30 06:48:24;;;;;;;11.55;6.60;;;;;;;14.61;100.00;100425.69;6300102;28;20052;-70
2023/08/30 06:51:25;;;;;;;13.63;8.07;;;;;;;14.55;100.00;100423.50;6300002;28;20044;-70
2023/08/30 06:54:27;;;;;;;9.43;5.25;;;;;;;14.58;100.00;100423.28;6300201;28;20048;-72
2023/08/30 06:57:28;;;;;;;14.77;7.53;;;;;;;14.60;100.00;100424.00;6299679;28;20155;-70
2023/08/30 07:00:29;;;;;;;13.65;7.45;;;;;;;14.60;100.00;100426.66;6300191;28;20056;-70
2023/08/30 07:03:32;;;;;;;10.45;6.25;;;;;;;14.62;100.00;100430.00;6296954;28;20056;-70
2023/08/30 07:06:33;;;;;;;12.57;6.47;;;;;;;14.68;100.00;100426.09;6294747;28;20451;-69
2023/08/30 07:09:35;;;;;;;11.32;6.63;;;;;;;14.71;100.00;100431.97;6297747;28;20352;-70
2023/08/30 07:12:36;;;;;;;11.90;6.72;;;;;;;14.70;100.00;100417.06;6294282;28;20045;-71
2023/08/30 07:15:38;;;;;;;11.13;6.32;;;;;;;14.70;100.00;100413.56;6304061;28;20462;-72
2023/08/30 07:18:41;;;;;;;9.70;6.20;;;;;;;14.78;100.00;100416.50;6323704;28;20048;-72
2023/08/30 07:21:43;;;;;;;11.18;5.90;;;;;;;14.85;100.00;100409.78;6295573;28;20045;-75
2023/08/30 07:24:45;;;;;;;11.05;6.30;;;;;;;14.92;100.00;100418.91;6293173;28;20595;-75
2023/08/30 07:27:46;;;;;;;9.50;4.88;;;;;;;14.94;100.00;100426.72;6299487;28;20041;-72
2023/08/30 07:30:48;;;;;;;10.10;6.65;;;;;;;14.96;100.00;100425.66;6302252;28;20360;-74
2023/08/30 07:33:51;;;;;;;11.57;6.15;;;;;;;14.96;100.00;100417.72;6307872;28;20049;-72
2023/08/30 07:36:55;;;;;;;11.65;6.05;;;;;;;15.04;100.00;100413.66;6303711;28;20048;-73
2023/08/30 07:39:56;;;;;;;11.57;7.07;;;;;;;15.11;100.00;100410.41;6304018;28;20051;-75
2023/08/30 07:42:58;;;;;;;13.30;7.55;;;;;;;15.15;100.00;100416.28;6308036;28;20044;-75
2023/08/30 07:45:59;;;;;;;13.65;6.93;;;;;;;15.23;100.00;100411.25;6303331;28;20048;-73
2023/08/30 07:49:02;;;;;;;13.38;6.38;;;;;;;15.27;100.00;100412.69;6303672;28;20044;-76
2023/08/30 07:52:04;;;;;;;11.75;6.65;;;;;;;15.29;100.00;100408.13;6303607;28;20055;-75
2023/08/30 07:55:05;;;;;;;11.65;6.57;;;;;;;15.31;100.00;100413.31;6303477;28;20045;-76
2023/08/30 07:58:09;;;;;;;9.00;5.95;;;;;;;15.26;100.00;100404.84;6303403;28;20361;-75
2023/08/30 08:01:10;;;;;;;10.20;6.03;;;;;;;15.26;100.00;100403.09;6303477;28;20333;-75
2023/08/30 08:04:13;;;;;;;14.02;5.75;;;;;;;15.33;100.00;100406.91;6303375;28;20056;-74
2023/08/30 08:07:14;;;;;;;8.80;4.82;;;;;;;15.40;100.00;100408.13;6303282;28;20045;-74
2023/08/30 08:10:15;;;;;;;10.55;5.30;;;;;;;15.45;100.00;100403.31;6303328;28;20056;-72
2023/08/30 08:13:18;;;;;;;10.32;5.47;;;;;;;15.47;100.00;100401.38;6303338;28;20049;-72
2023/08/30 08:16:19;;;;;;;8.57;5.30;;;;;;;15.44;100.00;100398.97;6302878;28;20052;-72
2023/08/30 08:19:22;;;;;;;6.53;4.03;;;;;;;15.45;100.00;100402.47;6321544;28;20052;-73
2023/08/30 08:22:23;;;;;;;10.75;4.75;;;;;;;15.46;100.00;100404.16;6302893;28;20360;-73
2023/08/30 08:25:25;;;;;;;7.03;4.38;;;;;;;15.51;100.00;100406.44;6302424;28;20072;-74
2023/08/30 08:28:26;;;;;;;7.97;3.83;;;;;;;15.55;100.00;100407.88;6303119;28;20047;-74
2023/08/30 08:31:28;;;;;;;5.80;4.00;;;;;;;15.60;100.00;100408.34;6302926;28;20060;-74
2023/08/30 08:34:30;;;;;;;7.10;4.18;;;;;;;15.59;100.00;100402.22;6302809;28;20076;-74
2023/08/30 08:37:32;;;;;;;7.75;3.55;;;;;;;15.60;100.00;100395.09;6300961;28;20057;-73
2023/08/30 08:40:37;;;;;;;4.60;2.80;;;;;;;15.61;100.00;100404.72;6301996;28;20525;-74
2023/08/30 08:43:40;;;;;;;5.28;2.92;;;;;;;15.63;100.00;100386.91;6302590;28;20052;-75
2023/08/30 08:46:42;;;;;;;8.23;3.58;;;;;;;15.66;100.00;100390.19;6302213;28;20052;-74
2023/08/30 08:49:45;;;;;;;9.40;3.35;;;;;;;15.70;100.00;100396.06;6302568;28;20048;-75
2023/08/30 08:52:47;;;;;;;5.80;2.97;;;;;;;15.75;100.00;100390.41;6302170;28;20056;-75
2023/08/30 08:55:49;;;;;;;12.65;6.30;;;;;;;15.81;100.00;100393.41;6301883;28;20106;-76
2023/08/30 08:58:51;;;;;;;5.20;3.20;;;;;;;15.87;100.00;100402.69;6301983;28;20044;-75
2023/08/30 09:01:53;;;;;;;4.57;2.72;;;;;;;15.92;100.00;100395.19;6302189;28;20082;-76
2023/08/30 09:04:58;;;;;;;7.50;3.50;;;;;;;15.94;100.00;100398.53;6301410;28;20053;-75
2023/08/30 09:07:59;;;;;;;7.30;3.75;;;;;;;16.02;100.00;100392.63;6301847;28;20044;-74
2023/08/30 09:11:01;;;;;;;7.38;3.80;;;;;;;16.11;100.00;100389.22;6301573;28;20051;-74
2023/08/30 09:14:03;;;;;;;9.20;4.53;;;;;;;16.17;100.00;100396.69;6301869;28;20056;-75
2023/08/30 09:17:04;;;;;;;7.90;3.95;;;;;;;16.24;100.00;100387.25;6300205;28;20418;-75
2023/08/30 09:20:09;;;;;;;6.43;3.28;;;;;;;16.30;100.00;100396.50;6301252;28;20356;-75
2023/08/30 09:23:17;;;;;;;7.18;4.07;;;;;;;16.30;100.00;100396.50;6298317;28;20120;-70
2023/08/30 09:26:19;;;;;;;7.28;4.03;;;;;;;16.43;100.00;100391.84;6301295;28;20066;-70
2023/08/30 09:29:23;;;;;;;6.40;3.83;;;;;;;16.49;100.00;100392.19;6300826;28;20096;-71
2023/08/30 09:32:24;;;;;;;6.85;4.05;;;;;;;16.51;100.00;100383.25;6301254;28;20052;-69
2023/08/30 09:35:27;;;;;;;8.90;3.80;;;;;;;16.50;100.00;100382.44;6300689;28;20052;-70
2023/08/30 09:38:28;;;;;;;9.85;5.47;;;;;;;16.55;100.00;100390.84;6293521;28;20088;-75
2023/08/30 09:41:30;;;;;;;10.70;4.38;;;;;;;16.61;100.00;100400.09;6293779;28;20053;-70
2023/08/30 09:44:31;;;;;;;12.38;5.53;;;;;;;16.62;100.00;100393.78;6300572;28;20326;-71
2023/08/30 09:47:35;;;;;;;10.48;5.13;;;;;;;16.71;100.00;100396.53;6300723;28;20049;-70
2023/08/30 09:50:39;;;;;;;9.68;5.00;;;;;;;16.76;100.00;100392.66;6300681;28;20055;-71
2023/08/30 09:53:44;;;;;;;10.80;4.97;;;;;;;16.85;100.00;100390.09;6300012;28;20045;-71
2023/08/30 09:56:46;;;;;;;8.00;4.78;;;;;;;16.94;100.00;100384.00;6300341;28;20121;-71
2023/08/30 09:59:49;;;;;;;11.40;6.30;;;;;;;17.04;100.00;100378.72;6300794;28;20052;-70
2023/08/30 10:02:51;;;;;;;9.20;5.53;;;;;;;17.10;100.00;100369.38;6298305;28;20053;-71
2023/08/30 10:05:55;;;;;;;9.82;4.30;;;;;;;17.14;100.00;100368.16;6291948;28;20056;-71
2023/08/30 10:08:59;;;;;;;14.07;5.85;;;;;;;17.19;100.00;100358.81;6300351;28;20068;-70
2023/08/30 10:12:02;;;;;;;8.55;5.22;;;;;;;17.31;100.00;100362.22;6300310;28;20048;-71
2023/08/30 10:15:05;;;;;;;12.55;4.65;;;;;;;17.38;100.00;100359.84;6300015;28;20048;-71
2023/08/30 10:18:08;;;;;;;7.25;4.20;;;;;;;17.38;100.00;100363.34;6299493;28;20056;-71
2023/08/30 10:21:13;;;;;;;7.50;3.47;;;;;;;17.47;100.00;100364.34;6300092;28;20070;-69
2023/08/30 10:24:19;;;;;;;14.20;5.95;;;;;;;17.57;100.00;100361.72;6299697;28;20360;-70
2023/08/30 10:27:23;;;;;;;9.25;4.10;;;;;;;17.67;100.00;100358.13;6299992;28;20047;-70
2023/08/30 10:30:25;;;;;;;29.67;14.45;;;;;;;17.79;100.00;100364.16;6299929;28;20078;-70
2023/08/30 10:33:27;;;;;;;9.45;4.95;;;;;;;17.82;100.00;100363.06;6300296;28;20052;-77
2023/08/30 10:36:29;;;;;;;7.70;4.47;;;;;;;17.86;100.00;100359.16;6296957;28;20068;-77
2023/08/30 10:39:36;;;;;;;7.00;4.13;;;;;;;17.91;100.00;100355.09;6300011;28;20127;-78
2023/08/30 10:42:37;;;;;;;8.00;3.72;;;;;;;17.92;100.00;100345.31;6299824;28;20415;-77
2023/08/30 10:45:39;;;;;;;13.73;4.40;;;;;;;17.91;100.00;100340.97;6299727;28;20052;-77
2023/08/30 10:48:42;;;;;;;8.60;4.43;;;;;;;18.08;100.00;100342.94;6299780;28;20040;-77
2023/08/30 10:51:47;;;;;;;5.70;3.05;;;;;;;18.14;100.00;100346.84;6299599;28;20135;-76
2023/08/30 10:54:50;;;;;;;10.15;3.80;;;;;;;18.17;100.00;100331.47;6299483;28;20052;-77
2023/08/30 10:58:00;;;;;;;7.72;4.00;;;;;;;18.25;100.00;100334.22;6300078;28;20048;-77
2023/08/30 11:01:01;;;;;;;9.35;3.63;;;;;;;18.41;100.00;100328.34;6292293;28;20045;-76
2023/08/30 11:04:04;;;;;;;9.15;3.17;;;;;;;18.47;100.00;100332.25;6300036;28;20390;-70
2023/08/30 11:07:07;;;;;;;6.97;3.50;;;;;;;18.60;100.00;100326.63;6304339;28;20044;-70
2023/08/30 11:10:09;;;;;;;7.88;2.72;;;;;;;18.60;100.00;100314.16;6304629;28;20055;-70
2023/08/30 11:13:11;;;;;;;6.80;2.72;;;;;;;18.65;100.00;100313.72;6302407;28;20468;-70
2023/08/30 11:16:12;;;;;;;4.75;2.63;;;;;;;18.68;100.00;100313.44;6300705;28;20429;-77
2023/08/30 11:19:13;;;;;;;5.15;2.78;;;;;;;18.54;100.00;100303.25;6304329;28;20052;-76
2023/08/30 11:22:16;;;;;;;4.70;2.50;;;;;;;18.42;100.00;100302.56;6300717;28;20056;-76
2023/08/30 11:25:18;;;;;;;7.05;3.35;;;;;;;18.35;100.00;100301.44;6303937;28;20052;-77
2023/08/30 11:28:22;;;;;;;5.50;2.40;;;;;;;18.26;100.00;100300.50;6298142;28;20037;-76
2023/08/30 11:31:27;;;;;;;7.40;3.10;;;;;;;18.24;100.00;100305.97;6304294;28;20055;-77
2023/08/30 11:34:28;;;;;;;7.05;2.92;;;;;;;18.28;100.00;100300.38;6304105;28;20158;-70
2023/08/30 11:37:31;;;;;;;7.97;3.70;;;;;;;18.30;100.00;100288.56;6300770;28;20044;-69
2023/08/30 11:40:33;;;;;;;6.20;3.20;;;;;;;18.33;100.00;100285.66;6294286;28;20048;-74
2023/08/30 11:43:35;;;;;;;3.90;2.30;;;;;;;18.45;100.00;100281.84;6278844;28;20053;-76
2023/08/30 11:46:36;;;;;;;6.63;3.30;;;;;;;18.51;100.00;100283.09;6300793;28;20056;-76
2023/08/30 11:49:39;;;;;;;4.93;3.10;;;;;;;18.55;100.00;100270.34;6302844;28;20041;-76
2023/08/30 11:52:42;;;;;;;5.72;3.03;;;;;;;18.65;100.00;100260.47;6301985;28;20040;-76
2023/08/30 11:55:44;;;;;;;5.50;2.70;;;;;;;18.78;100.00;100269.00;6302989;28;20441;-76
2023/08/30 11:58:45;;;;;;;4.05;2.10;;;;;;;18.74;100.00;100262.31;6302985;28;20047;-76
2023/08/30 12:01:47;;;;;;;7.00;2.83;;;;;;;18.73;100.00;100261.47;6303179;28;20348;-77
2023/08/30 12:04:48;;;;;;;6.03;2.35;;;;;;;18.80;100.00;100261.72;6303438;28;20055;-75
2023/08/30 12:07:51;;;;;;;4.00;2.50;;;;;;;19.10;100.00;100257.09;6302650;28;20040;-74
2023/08/30 12:10:53;;;;;;;5.18;2.75;;;;;;;19.45;100.00;100248.31;6303265;28;20190;-73
2023/08/30 12:14:02;;;;;;;6.30;2.88;;;;;;;19.69;100.00;100251.25;6301625;28;20349;-76
2023/08/30 12:17:04;;;;;;;23.55;10.23;;;;;;;19.67;100.00;100239.91;6300460;28;20117;-76
2023/08/30 12:20:07;;;;;;;4.88;3.05;;;;;;;19.63;100.00;100241.19;6302947;28;20036;-76
2023/08/30 12:23:20;;;;;;;9.30;3.10;;;;;;;19.51;100.00;100239.72;6302808;28;20163;-76
2023/08/30 12:26:21;;;;;;;4.45;2.65;;;;;;;19.55;100.00;100235.75;6301536;28;20048;-76
2023/08/30 12:29:22;;;;;;;3.63;2.25;;;;;;;19.48;100.00;100238.19;6302581;28;20052;-77
2023/08/30 12:32:24;;;;;;;4.47;2.28;;;;;;;19.40;100.00;100227.47;6302854;28;20052;-76
2023/08/30 12:35:25;;;;;;;4.82;2.38;;;;;;;19.30;100.00;100229.34;6301980;28;20052;-75
2023/08/30 12:38:28;;;;;;;3.20;2.17;;;;;;;19.27;100.00;100227.81;6302680;28;20045;-74
2023/08/30 12:41:30;;;;;;;8.68;3.15;;;;;;;19.10;100.00;100223.31;6302396;28;20209;-75
2023/08/30 12:44:31;;;;;;;4.70;2.85;;;;;;;19.06;100.00;100224.59;6302392;28;20467;-77
2023/08/30 12:47:32;;;;;;;5.60;2.85;;;;;;;18.98;100.00;100213.84;6302001;28;20057;-74
2023/08/30 12:50:35;;;;;;;8.00;2.90;;;;;;;18.98;100.00;100206.69;6302315;28;20071;-77
2023/08/30 12:53:37;;;;;;;4.22;2.67;;;;;;;18.99;100.00;100207.53;6302173;28;20060;-76
2023/08/30 12:56:39;;;;;;;6.63;2.90;;;;;;;19.02;100.00;100197.41;6301867;28;20052;-76
2023/08/30 12:59:40;;;;;;;8.10;4.15;;;;;;;19.08;100.00;100198.66;6302145;28;20043;-76
2023/08/30 13:02:41;;;;;;;4.50;2.50;;;;;;;19.06;100.00;100199.78;6301803;28;20056;-77
2023/08/30 13:05:43;;;;;;;3.30;2.13;;;;;;;19.04;100.00;100199.09;6301628;28;20060;-76
2023/08/30 13:08:45;;;;;;;5.18;3.28;;;;;;;18.98;100.00;100192.53;6301640;28;20047;-77
2023/08/30 13:11:47;;;;;;;4.38;2.40;;;;;;;18.97;100.00;100191.69;6301294;28;20047;-77
2023/08/30 13:14:49;;;;;;;6.82;3.10;;;;;;;18.92;100.00;100199.28;6300479;28;20044;-77
2023/08/30 13:17:50;;;;;;;3.80;2.38;;;;;;;18.88;100.00;100192.59;6321481;23;20040;-65
2023/08/30 13:20:54;;;;;;;6.53;2.60;;;;;;;18.81;100.00;100196.84;6300596;28;20048;-65
2023/08/30 13:23:57;;;;;;;6.18;3.38;;;;;;;18.78;100.00;100194.47;6292165;28;20048;-67
2023/08/30 13:26:59;;;;;;;6.75;2.97;;;;;;;18.86;100.00;100196.41;6300101;28;20045;-66
2023/08/30 13:30:00;;;;;;;5.68;2.97;;;;;;;18.85;100.00;100198.22;6300215;28;20041;-66
2023/08/30 13:33:01;;;;;;;3.67;2.33;;;;;;;18.84;100.00;100199.19;6300572;28;20056;-66
2023/08/30 13:36:03;;;;;;;7.47;3.65;;;;;;;18.83;100.00;100197.53;6299921;28;20052;-70
2023/08/30 13:39:06;;;;;;;3.17;2.38;;;;;;;18.81;100.00;100201.34;6294419;28;20059;-69
2023/08/30 13:42:08;;;;;;;10.70;5.85;;;;;;;18.81;100.00;100199.50;6289194;28;20048;-65
2023/08/30 13:45:10;;;;;;;7.30;3.67;;;;;;;18.74;100.00;100193.94;6286279;28;20052;-65
2023/08/30 13:48:11;;;;;;;7.07;2.78;;;;;;;18.73;100.00;100186.94;6286844;28;20436;-65
2023/08/30 13:51:13;;;;;;;10.90;3.55;;;;;;;18.65;100.00;100189.47;6286215;28;20049;-65
2023/08/30 13:54:15;;;;;;;6.25;2.63;;;;;;;18.63;100.00;100188.78;6299776;28;20056;-65
2023/08/30 13:57:17;;;;;;;5.72;3.17;;;;;;;18.61;100.00;100197.88;6299569;28;20048;-66